createdAt,value
2024-03-08T00:00:14.542Z,8.73
2024-03-08T00:02:45.016Z,8.95
2024-03-08T00:05:13.393Z,7.78
2024-03-08T00:07:42.416Z,8.87
2024-03-08T00:10:13.053Z,6.97
2024-03-08T00:12:42.872Z,8.65
2024-03-08T00:15:11.799Z,8.38
2024-03-08T00:17:39.848Z,8.57
2024-03-08T00:20:10.667Z,8.20
2024-03-08T00:22:38.542Z,8.10
2024-03-08T00:25:09.726Z,8.00
2024-03-08T00:27:37.533Z,9.43
2024-03-08T00:30:05.956Z,6.32
2024-03-08T00:32:33.828Z,7.97
2024-03-08T00:35:01.587Z,9.07
2024-03-08T00:37:30.567Z,7.95
2024-03-08T00:39:58.176Z,8.00
2024-03-08T00:42:26.059Z,8.55
2024-03-08T00:44:53.876Z,8.05
2024-03-08T00:47:21.553Z,7.93
2024-03-08T00:49:49.157Z,7.33
2024-03-08T00:52:16.969Z,8.82
2024-03-08T00:54:46.140Z,8.60
2024-03-08T00:57:13.790Z,8.68
2024-03-08T00:59:41.505Z,8.47
2024-03-08T01:02:09.886Z,8.27
2024-03-08T01:04:37.487Z,9.15
2024-03-08T01:07:05.176Z,8.43
2024-03-08T01:09:33.053Z,8.13
2024-03-08T01:12:02.352Z,7.90
2024-03-08T01:14:31.949Z,9.10
2024-03-08T01:16:59.795Z,9.38
2024-03-08T01:19:27.460Z,8.90
2024-03-08T01:21:56.756Z,8.70
2024-03-08T01:24:24.450Z,7.85
2024-03-08T01:26:52.095Z,7.00
2024-03-08T01:29:21.196Z,7.95
2024-03-08T01:31:48.798Z,7.90
2024-03-08T01:34:16.427Z,7.65
2024-03-08T01:36:44.074Z,8.63
2024-03-08T01:39:12.048Z,8.93
2024-03-08T01:41:41.278Z,8.93
2024-03-08T01:44:10.153Z,8.07
2024-03-08T01:46:39.140Z,8.52
2024-03-08T01:49:06.793Z,8.38
2024-03-08T01:51:34.796Z,8.60
2024-03-08T01:54:04.666Z,8.40
2024-03-08T01:56:33.462Z,10.38
2024-03-08T01:59:01.790Z,8.88
2024-03-08T02:01:33.305Z,9.23
2024-03-08T02:04:02.503Z,9.33
2024-03-08T02:06:30.821Z,9.18
2024-03-08T02:08:59.175Z,9.48
2024-03-08T02:11:27.025Z,9.98
2024-03-08T02:13:54.864Z,9.37
2024-03-08T02:16:23.524Z,9.43
2024-03-08T02:18:51.485Z,9.20
2024-03-08T02:21:20.815Z,9.88
2024-03-08T02:23:48.712Z,9.77
2024-03-08T02:26:16.868Z,8.70
2024-03-08T02:28:45.167Z,9.05
2024-03-08T02:31:13.037Z,9.40
2024-03-08T02:33:40.889Z,9.10
2024-03-08T02:36:09.217Z,9.53
2024-03-08T02:38:39.037Z,9.60
2024-03-08T02:41:06.993Z,9.73
2024-03-08T02:43:35.098Z,9.43
2024-03-08T02:46:02.750Z,10.18
2024-03-08T02:48:30.582Z,9.93
2024-03-08T02:50:58.322Z,9.93
2024-03-08T02:53:26.570Z,10.23
2024-03-08T02:55:56.230Z,9.68
2024-03-08T02:58:24.232Z,9.55
2024-03-08T03:00:52.104Z,9.57
2024-03-08T03:03:19.822Z,9.45
2024-03-08T03:05:49.437Z,9.30
2024-03-08T03:08:17.705Z,9.82
2024-03-08T03:10:45.380Z,9.27
2024-03-08T03:13:15.110Z,9.17
2024-03-08T03:15:42.921Z,9.25
2024-03-08T03:18:10.827Z,9.27
2024-03-08T03:20:41.670Z,8.93
2024-03-08T03:23:10.264Z,8.70
2024-03-08T03:25:39.732Z,8.38
2024-03-08T03:28:09.259Z,9.52
2024-03-08T03:30:38.377Z,9.02
2024-03-08T03:33:07.840Z,9.00
2024-03-08T03:35:37.186Z,8.53
2024-03-08T03:38:09.708Z,9.05
2024-03-08T03:40:39.492Z,9.73
2024-03-08T03:43:07.418Z,8.45
2024-03-08T03:45:35.781Z,9.30
2024-03-08T03:48:07.629Z,9.45
2024-03-08T03:50:36.877Z,8.70
2024-03-08T03:53:08.731Z,8.45
2024-03-08T03:55:37.859Z,8.07
2024-03-08T03:58:05.844Z,9.18
2024-03-08T04:00:33.996Z,8.80
2024-03-08T04:03:02.334Z,8.48
2024-03-08T04:05:31.885Z,8.90
2024-03-08T04:07:59.584Z,8.60
2024-03-08T04:10:27.403Z,8.55
2024-03-08T04:12:55.032Z,9.15
2024-03-08T04:15:22.770Z,8.57
2024-03-08T04:17:50.559Z,9.03
2024-03-08T04:20:18.652Z,8.13
2024-03-08T04:22:49.344Z,7.95
2024-03-08T04:25:17.231Z,8.77
2024-03-08T04:27:45.489Z,8.67
2024-03-08T04:30:14.233Z,8.90
2024-03-08T04:32:42.583Z,8.90
2024-03-08T04:35:10.670Z,8.82
2024-03-08T04:37:38.435Z,7.60
2024-03-08T04:40:09.132Z,9.10
2024-03-08T04:42:39.075Z,8.55
2024-03-08T04:45:09.119Z,8.60
2024-03-08T04:47:38.108Z,8.75
2024-03-08T04:50:06.800Z,8.15
2024-03-08T04:52:34.414Z,8.63
2024-03-08T04:55:03.001Z,8.48
2024-03-08T04:57:31.978Z,8.80
2024-03-08T05:00:00.186Z,8.85
2024-03-08T05:02:27.962Z,8.60
2024-03-08T05:04:56.257Z,8.40
2024-03-08T05:07:23.858Z,7.65
2024-03-08T05:09:52.848Z,8.32
2024-03-08T05:12:20.953Z,8.07
2024-03-08T05:14:51.007Z,9.00
2024-03-08T05:17:19.023Z,8.52
2024-03-08T05:19:47.014Z,8.40
2024-03-08T05:22:14.893Z,8.73
2024-03-08T05:24:43.573Z,8.33
2024-03-08T05:27:11.284Z,9.20
2024-03-08T05:29:39.349Z,9.63
2024-03-08T05:32:09.084Z,8.60
2024-03-08T05:34:36.798Z,8.83
2024-03-08T05:37:04.472Z,8.48
2024-03-08T05:39:32.281Z,8.98
2024-03-08T05:42:00.022Z,8.35
2024-03-08T05:44:29.691Z,9.00
2024-03-08T05:46:57.459Z,9.02
2024-03-08T05:49:27.012Z,8.45
2024-03-08T05:51:55.488Z,8.77
2024-03-08T05:54:25.679Z,8.40
2024-03-08T05:56:56.658Z,9.23
2024-03-08T05:59:24.914Z,8.27
2024-03-08T06:01:52.715Z,8.52
2024-03-08T06:04:20.366Z,7.97
2024-03-08T06:06:52.456Z,8.35
2024-03-08T06:09:24.772Z,8.52
2024-03-08T06:11:53.105Z,8.80
2024-03-08T06:14:20.807Z,9.73
2024-03-08T06:16:51.278Z,8.48
2024-03-08T06:19:19.482Z,8.55
2024-03-08T06:21:47.609Z,8.10
2024-03-08T06:24:17.167Z,9.60
2024-03-08T06:26:44.924Z,9.32
2024-03-08T06:29:13.892Z,8.88
2024-03-08T06:31:41.603Z,9.02
2024-03-08T06:34:10.232Z,8.68
2024-03-08T06:36:38.885Z,8.70
2024-03-08T06:39:10.157Z,8.57
2024-03-08T06:41:39.681Z,9.57
2024-03-08T06:44:09.024Z,8.82
2024-03-08T06:46:37.010Z,8.13
2024-03-08T06:49:04.797Z,7.73
2024-03-08T06:51:33.335Z,9.25
2024-03-08T06:54:01.090Z,8.98
2024-03-08T06:56:28.737Z,7.97
2024-03-08T06:58:57.775Z,9.30
2024-03-08T07:01:25.563Z,8.03
2024-03-08T07:03:53.525Z,8.35
2024-03-08T07:06:21.774Z,9.52
2024-03-08T07:08:49.856Z,8.35
2024-03-08T07:11:19.507Z,9.73
2024-03-08T07:13:47.463Z,9.07
2024-03-08T07:16:16.951Z,6.80
2024-03-08T07:18:45.416Z,8.43
2024-03-08T07:21:13.369Z,8.77
2024-03-08T07:24:04.433Z,9.65
2024-03-08T07:26:32.586Z,9.30
2024-03-08T07:29:01.478Z,9.25
2024-03-08T07:31:45.556Z,8.02
2024-03-08T07:34:13.531Z,9.50
2024-03-08T07:36:41.200Z,8.77
2024-03-08T07:39:12.475Z,8.97
2024-03-08T07:41:41.047Z,8.45
2024-03-08T07:44:08.799Z,8.90
2024-03-08T07:46:38.147Z,8.55
2024-03-08T07:49:05.807Z,9.80
2024-03-08T07:51:35.716Z,8.90
2024-03-08T07:54:05.366Z,9.18
2024-03-08T07:56:33.251Z,9.55
2024-03-08T07:59:00.927Z,8.02
2024-03-08T08:01:28.762Z,6.45
2024-03-08T08:03:58.060Z,8.63
2024-03-08T08:06:26.454Z,8.57
2024-03-08T08:08:54.392Z,9.10
2024-03-08T08:11:22.894Z,8.98
2024-03-08T08:13:50.543Z,9.18
2024-03-08T08:16:18.423Z,8.73
2024-03-08T08:18:47.266Z,8.73
2024-03-08T08:21:16.276Z,8.82
2024-03-08T08:23:43.922Z,8.38
2024-03-08T08:26:12.494Z,8.70
2024-03-08T08:28:41.939Z,8.50
2024-03-08T08:31:09.808Z,8.40
2024-03-08T08:33:37.681Z,9.30
2024-03-08T08:36:06.224Z,8.75
2024-03-08T08:38:35.215Z,8.70
2024-03-08T08:41:03.498Z,8.33
2024-03-08T08:43:31.295Z,8.55
2024-03-08T08:45:58.909Z,7.90
2024-03-08T08:48:26.654Z,8.52
2024-03-08T08:50:54.415Z,8.10
2024-03-08T08:53:22.917Z,8.07
2024-03-08T08:55:52.047Z,8.20
2024-03-08T08:58:20.644Z,8.45
2024-03-08T09:00:48.277Z,8.32
2024-03-08T09:03:18.143Z,8.73
2024-03-08T09:05:46.382Z,7.97
2024-03-08T09:08:14.756Z,8.48
2024-03-08T09:10:42.540Z,8.27
2024-03-08T09:13:18.298Z,8.70
2024-03-08T09:15:53.751Z,8.27
2024-03-08T09:18:21.472Z,8.27
2024-03-08T09:20:49.236Z,7.80
2024-03-08T09:23:18.002Z,8.55
2024-03-08T09:25:47.682Z,8.13
2024-03-08T09:28:17.540Z,7.57
2024-03-08T09:30:53.825Z,8.33
2024-03-08T09:33:24.957Z,7.93
2024-03-08T09:35:54.228Z,7.75
2024-03-08T09:38:22.643Z,7.30
2024-03-08T09:40:50.333Z,8.05
2024-03-08T09:43:22.577Z,7.33
2024-03-08T09:45:52.126Z,6.97
2024-03-08T09:48:21.070Z,7.15
2024-03-08T09:50:49.303Z,7.30
2024-03-08T09:53:17.769Z,7.53
2024-03-08T09:55:46.404Z,7.43
2024-03-08T09:58:37.285Z,6.53
2024-03-08T10:01:07.299Z,7.13
2024-03-08T10:03:35.707Z,6.53
2024-03-08T10:06:04.480Z,6.82
2024-03-08T10:08:32.225Z,6.43
2024-03-08T10:11:00.330Z,6.13
2024-03-08T10:13:29.261Z,7.05
2024-03-08T10:15:57.039Z,7.53
2024-03-08T10:18:26.076Z,7.10
2024-03-08T10:21:08.433Z,7.13
2024-03-08T10:23:36.532Z,6.55
2024-03-08T10:26:15.777Z,6.07
2024-03-08T10:28:45.413Z,5.75
2024-03-08T10:31:15.478Z,5.50
2024-03-08T10:33:46.259Z,5.00
2024-03-08T10:36:15.321Z,5.15
2024-03-08T10:38:47.903Z,5.22
2024-03-08T10:41:17.275Z,6.20
2024-03-08T10:44:02.348Z,5.30
2024-03-08T10:46:38.566Z,5.30
2024-03-08T10:49:14.598Z,5.13
2024-03-08T10:51:43.491Z,5.55
2024-03-08T10:54:12.674Z,4.90
2024-03-08T10:56:42.084Z,4.68
2024-03-08T10:59:10.897Z,5.77
2024-03-08T11:01:39.299Z,6.18
2024-03-08T11:04:08.401Z,5.85
2024-03-08T11:06:46.372Z,5.55
2024-03-08T11:09:31.837Z,4.75
2024-03-08T11:12:22.197Z,5.23
2024-03-08T11:14:51.590Z,6.07
2024-03-08T11:17:23.614Z,5.95
2024-03-08T11:19:57.566Z,5.90
2024-03-08T11:22:32.422Z,5.55
2024-03-08T11:25:01.962Z,5.83
2024-03-08T11:27:32.136Z,5.10
2024-03-08T11:30:21.395Z,6.03
2024-03-08T11:32:49.535Z,5.70
2024-03-08T11:35:23.945Z,5.25
2024-03-08T11:37:52.046Z,5.40
2024-03-08T11:40:21.030Z,5.40
2024-03-08T11:42:50.723Z,5.82
2024-03-08T11:45:19.069Z,5.60
2024-03-08T11:47:47.949Z,5.45
2024-03-08T11:50:16.276Z,5.37
2024-03-08T11:52:45.861Z,5.75
2024-03-08T11:55:14.212Z,5.53
2024-03-08T11:57:43.321Z,5.80
2024-03-08T12:00:24.004Z,5.32
2024-03-08T12:03:03.808Z,5.93
2024-03-08T12:05:32.400Z,5.63
2024-03-08T12:08:01.945Z,5.43
2024-03-08T12:10:30.789Z,5.40
2024-03-08T12:13:01.296Z,5.28
2024-03-08T12:15:33.929Z,5.37
2024-03-08T12:18:02.587Z,5.80
2024-03-08T12:20:31.990Z,5.85
2024-03-08T12:23:01.893Z,5.68
2024-03-08T12:25:32.466Z,6.30
2024-03-08T12:28:11.589Z,5.07
2024-03-08T12:30:48.824Z,5.90
2024-03-08T12:33:16.562Z,5.50
2024-03-08T12:35:54.518Z,5.60
2024-03-08T12:38:26.752Z,5.53
2024-03-08T12:40:58.170Z,5.80
2024-03-08T12:43:26.128Z,5.47
2024-03-08T12:45:56.089Z,5.10
2024-03-08T12:48:23.791Z,5.50
2024-03-08T12:50:53.050Z,5.38
2024-03-08T12:53:20.961Z,5.80
2024-03-08T12:55:49.943Z,5.75
2024-03-08T12:58:18.266Z,5.55
2024-03-08T13:00:46.492Z,5.43
2024-03-08T13:03:14.147Z,5.45
2024-03-08T13:05:43.504Z,5.60
2024-03-08T13:08:13.862Z,5.55
2024-03-08T13:10:44.312Z,5.70
2024-03-08T13:13:19.467Z,5.30
2024-03-08T13:15:47.365Z,5.13
2024-03-08T13:18:16.934Z,5.03
2024-03-08T13:20:50.188Z,6.13
2024-03-08T13:23:18.584Z,4.95
2024-03-08T13:25:48.617Z,4.97
2024-03-08T13:28:18.398Z,5.03
2024-03-08T13:30:46.682Z,5.03
2024-03-08T13:33:15.763Z,5.30
2024-03-08T13:35:43.433Z,5.40
2024-03-08T13:38:14.226Z,5.55
2024-03-08T13:40:42.197Z,4.40
2024-03-08T13:43:09.961Z,5.17
2024-03-08T13:45:39.794Z,5.10
2024-03-08T13:48:08.146Z,4.90
2024-03-08T13:50:36.069Z,5.15
2024-03-08T13:53:04.753Z,5.13
2024-03-08T13:55:32.542Z,5.07
2024-03-08T13:58:01.314Z,4.38
2024-03-08T14:00:34.141Z,4.45
2024-03-08T14:03:06.591Z,5.07
2024-03-08T14:05:35.806Z,5.30
2024-03-08T14:08:04.605Z,5.10
2024-03-08T14:10:32.897Z,5.05
2024-03-08T14:13:00.963Z,4.53
2024-03-08T14:15:28.710Z,4.68
2024-03-08T14:17:56.973Z,4.93
2024-03-08T14:20:27.167Z,5.20
2024-03-08T14:22:55.977Z,5.30
2024-03-08T14:25:24.780Z,5.40
2024-03-08T14:27:54.659Z,5.50
2024-03-08T14:30:35.704Z,5.82
2024-03-08T14:33:04.238Z,5.87
2024-03-08T14:35:35.429Z,5.80
2024-03-08T14:38:03.243Z,5.95
2024-03-08T14:40:31.521Z,6.45
2024-03-08T14:42:59.274Z,5.65
2024-03-08T14:45:27.632Z,6.33
2024-03-08T14:47:56.026Z,6.32
2024-03-08T14:50:25.069Z,6.25
2024-03-08T14:52:54.582Z,6.22
2024-03-08T14:55:23.639Z,6.47
2024-03-08T14:57:52.427Z,6.40
2024-03-08T15:00:27.864Z,6.85
2024-03-08T15:02:56.161Z,6.70
2024-03-08T15:05:28.105Z,6.97
2024-03-08T15:07:57.390Z,6.32
2024-03-08T15:10:26.928Z,6.50
2024-03-08T15:12:56.854Z,7.18
2024-03-08T15:15:27.130Z,6.65
2024-03-08T15:17:58.459Z,6.72
2024-03-08T15:20:30.976Z,6.13
2024-03-08T15:23:00.703Z,6.37
2024-03-08T15:25:28.821Z,6.85
2024-03-08T15:27:58.767Z,6.65
2024-03-08T15:30:27.577Z,6.32
2024-03-08T15:32:58.213Z,6.30
2024-03-08T15:35:26.843Z,7.17
2024-03-08T15:37:57.262Z,6.60
2024-03-08T15:40:26.668Z,7.40
2024-03-08T15:42:57.599Z,7.10
2024-03-08T15:45:26.884Z,7.00
2024-03-08T15:47:54.545Z,6.50
2024-03-08T15:50:24.166Z,6.45
2024-03-08T15:52:53.850Z,7.10
2024-03-08T15:55:24.123Z,6.90
2024-03-08T15:57:54.905Z,6.88
2024-03-08T16:00:34.422Z,6.77
2024-03-08T16:03:07.341Z,6.32
2024-03-08T16:05:35.532Z,7.20
2024-03-08T16:08:03.479Z,7.28
2024-03-08T16:10:31.400Z,6.70
2024-03-08T16:13:01.648Z,6.83
2024-03-08T16:15:29.310Z,6.05
2024-03-08T16:17:57.043Z,6.03
2024-03-08T16:20:24.708Z,7.15
2024-03-08T16:22:53.627Z,6.90
2024-03-08T16:25:21.516Z,6.60
2024-03-08T16:27:49.338Z,6.90
2024-03-08T16:30:18.447Z,6.65
2024-03-08T16:32:51.510Z,5.78
2024-03-08T16:35:20.725Z,6.95
2024-03-08T16:37:49.378Z,6.60
2024-03-08T16:40:18.378Z,6.95
2024-03-08T16:42:46.693Z,6.63
2024-03-08T16:45:15.374Z,7.10
2024-03-08T16:47:54.934Z,6.82
2024-03-08T16:50:51.010Z,6.53
2024-03-08T16:53:35.781Z,7.10
2024-03-08T16:56:07.269Z,6.75
2024-03-08T16:58:39.313Z,6.72
2024-03-08T17:01:07.156Z,6.20
2024-03-08T17:03:44.936Z,6.60
2024-03-08T17:06:23.929Z,6.28
2024-03-08T17:08:53.001Z,6.13
2024-03-08T17:11:22.235Z,6.30
2024-03-08T17:13:50.324Z,6.95
2024-03-08T17:16:18.149Z,6.00
2024-03-08T17:18:47.115Z,5.93
2024-03-08T17:21:15.299Z,5.80
2024-03-08T17:23:42.905Z,6.18
2024-03-08T17:26:10.712Z,5.95
2024-03-08T17:28:42.629Z,5.90
2024-03-08T17:31:12.969Z,6.38
2024-03-08T17:33:42.807Z,5.97
2024-03-08T17:36:12.735Z,6.65
2024-03-08T17:38:48.016Z,6.70
2024-03-08T17:41:24.513Z,5.87
2024-03-08T17:43:53.063Z,6.35
2024-03-08T17:46:21.275Z,6.18
2024-03-08T17:48:49.051Z,6.20
2024-03-08T17:51:18.053Z,6.22
2024-03-08T17:53:47.396Z,6.67
2024-03-08T17:56:16.108Z,6.45
2024-03-08T17:58:43.853Z,6.47
2024-03-08T18:01:13.422Z,6.40
2024-03-08T18:03:41.717Z,6.28
2024-03-08T18:06:10.126Z,6.47
2024-03-08T18:08:39.269Z,6.72
2024-03-08T18:11:07.581Z,6.57
2024-03-08T18:13:36.095Z,6.60
2024-03-08T18:16:03.732Z,7.00
2024-03-08T18:18:32.757Z,7.17
2024-03-08T18:21:00.376Z,7.47
2024-03-08T18:23:30.106Z,6.60
2024-03-08T18:25:59.105Z,7.25
2024-03-08T18:28:32.035Z,6.70
2024-03-08T18:31:00.807Z,6.67
2024-03-08T18:33:29.144Z,7.60
2024-03-08T18:35:57.452Z,6.88
2024-03-08T18:38:34.494Z,6.88
2024-03-08T18:41:07.176Z,7.03
2024-03-08T18:43:35.185Z,7.40
2024-03-08T18:46:05.104Z,7.45
2024-03-08T18:48:32.758Z,7.55
2024-03-08T18:51:01.945Z,7.63
2024-03-08T18:53:30.398Z,8.07
2024-03-08T18:55:58.176Z,7.47
2024-03-08T18:58:39.181Z,7.80
2024-03-08T19:01:13.140Z,7.63
2024-03-08T19:03:42.076Z,7.75
2024-03-08T19:06:09.867Z,7.55
2024-03-08T19:08:37.947Z,6.93
2024-03-08T19:11:06.075Z,7.50
2024-03-08T19:13:35.862Z,7.57
2024-03-08T19:16:03.492Z,7.90
2024-03-08T19:18:31.318Z,7.28
2024-03-08T19:20:59.594Z,8.20
2024-03-08T19:23:28.282Z,7.68
2024-03-08T19:25:56.072Z,8.35
2024-03-08T19:28:23.767Z,7.65
2024-03-08T19:30:55.176Z,7.80
2024-03-08T19:33:22.975Z,7.77
2024-03-08T19:35:50.695Z,7.93
2024-03-08T19:38:21.125Z,7.95
2024-03-08T19:40:49.651Z,8.52
2024-03-08T19:43:17.503Z,7.63
2024-03-08T19:45:46.396Z,7.57
2024-03-08T19:48:19.351Z,7.40
2024-03-08T19:50:47.910Z,7.38
2024-03-08T19:53:17.103Z,7.75
2024-03-08T19:55:50.064Z,8.15
2024-03-08T19:58:21.521Z,7.43
2024-03-08T20:00:50.478Z,7.50
2024-03-08T20:03:24.554Z,7.30
2024-03-08T20:05:54.355Z,7.40
2024-03-08T20:08:23.986Z,7.63
2024-03-08T20:10:52.974Z,7.30
2024-03-08T20:13:20.996Z,7.32
2024-03-08T20:15:53.915Z,7.70
2024-03-08T20:18:27.382Z,7.75
2024-03-08T20:20:56.019Z,7.82
2024-03-08T20:23:24.315Z,7.90
2024-03-08T20:25:52.689Z,8.05
2024-03-08T20:28:20.545Z,8.50
2024-03-08T20:30:48.761Z,7.72
2024-03-08T20:33:17.626Z,8.95
2024-03-08T20:35:47.282Z,9.03
2024-03-08T20:38:21.442Z,8.25
2024-03-08T20:40:50.765Z,8.65
2024-03-08T20:43:19.018Z,8.10
2024-03-08T20:45:47.760Z,8.13
2024-03-08T20:48:16.380Z,8.90
2024-03-08T20:50:48.795Z,8.52
2024-03-08T20:53:16.870Z,8.75
2024-03-08T20:55:44.758Z,9.00
2024-03-08T20:58:12.723Z,8.68
2024-03-08T21:00:49.367Z,8.33
2024-03-08T21:03:19.862Z,8.82
2024-03-08T21:05:51.538Z,9.13
2024-03-08T21:08:24.920Z,9.40
2024-03-08T21:10:54.560Z,9.80
2024-03-08T21:13:25.063Z,8.93
2024-03-08T21:15:53.457Z,9.35
2024-03-08T21:18:22.242Z,9.23
2024-03-08T21:20:52.034Z,8.77
2024-03-08T21:23:20.316Z,8.32
2024-03-08T21:25:48.038Z,8.90
2024-03-08T21:28:16.531Z,9.07
2024-03-08T21:30:44.864Z,9.57
2024-03-08T21:33:13.036Z,10.20
2024-03-08T21:35:41.792Z,10.50
2024-03-08T21:38:11.863Z,9.90
2024-03-08T21:43:13.811Z,10.73
2024-03-08T21:45:43.500Z,9.02
2024-03-08T21:48:12.751Z,9.98
2024-03-08T21:50:40.697Z,9.57
2024-03-08T21:53:14.440Z,9.38
2024-03-08T21:55:49.698Z,8.65
2024-03-08T21:58:18.730Z,9.15
2024-03-08T22:00:48.169Z,8.98
2024-03-08T22:03:16.412Z,7.73
2024-03-08T22:05:44.680Z,8.20
2024-03-08T22:08:12.724Z,8.63
2024-03-08T22:10:40.413Z,7.47
2024-03-08T22:13:10.163Z,8.15
2024-03-08T22:15:38.702Z,7.30
2024-03-08T22:18:07.831Z,7.95
2024-03-08T22:20:35.691Z,8.23
2024-03-08T22:23:04.194Z,7.25
2024-03-08T22:25:32.819Z,7.78
2024-03-08T22:28:00.788Z,7.07
2024-03-08T22:30:29.849Z,7.60
2024-03-08T22:32:58.298Z,7.22
2024-03-08T22:35:26.867Z,7.97
2024-03-08T22:37:55.820Z,7.82
2024-03-08T22:40:26.311Z,7.23
2024-03-08T22:42:55.161Z,7.47
2024-03-08T22:45:26.741Z,7.50
2024-03-08T22:47:55.821Z,7.68
2024-03-08T22:50:25.610Z,6.95
2024-03-08T22:52:53.531Z,7.03
2024-03-08T22:55:22.273Z,7.10
2024-03-08T22:57:51.466Z,7.60
2024-03-08T23:00:44.885Z,6.72
2024-03-08T23:03:13.973Z,6.90
2024-03-08T23:05:42.440Z,7.10
2024-03-08T23:08:10.479Z,6.90
2024-03-08T23:10:40.073Z,7.07
2024-03-08T23:13:10.593Z,6.60
2024-03-08T23:15:39.997Z,6.82
2024-03-08T23:18:11.304Z,6.17
2024-03-08T23:20:43.391Z,6.82
2024-03-08T23:23:12.879Z,7.75
2024-03-08T23:25:41.594Z,7.03
2024-03-08T23:28:12.996Z,7.20
2024-03-08T23:30:42.351Z,6.17
2024-03-08T23:33:13.284Z,6.93
2024-03-08T23:35:44.634Z,6.82
2024-03-08T23:38:12.379Z,7.18
2024-03-08T23:40:40.743Z,7.32
2024-03-08T23:43:08.962Z,6.20
2024-03-08T23:45:36.751Z,6.78
2024-03-08T23:48:07.190Z,7.03
2024-03-08T23:50:35.354Z,7.13
2024-03-08T23:53:06.986Z,6.60
2024-03-08T23:55:36.910Z,7.20
2024-03-08T23:58:07.801Z,6.47
